createdAt,value
2018-05-12T00:00:57.933Z,54.90
2018-05-12T00:03:25.395Z,55.10
2018-05-12T00:05:52.944Z,55.10
2018-05-12T00:08:20.382Z,54.90
2018-05-12T00:10:47.832Z,54.80
2018-05-12T00:13:15.394Z,55.00
2018-05-12T00:15:42.869Z,55.30
2018-05-12T00:18:10.354Z,55.20
2018-05-12T00:20:37.812Z,55.30
2018-05-12T00:23:05.299Z,55.50
2018-05-12T00:25:34.130Z,55.80
2018-05-12T00:28:01.578Z,55.80
2018-05-12T00:30:29.057Z,55.80
2018-05-12T00:32:56.512Z,56.20
2018-05-12T00:35:24.083Z,56.70
2018-05-12T00:37:51.566Z,56.60
2018-05-12T00:40:19.825Z,56.80
2018-05-12T00:42:47.339Z,56.80
2018-05-12T00:45:14.830Z,57.20
2018-05-12T00:47:42.309Z,57.80
2018-05-12T00:50:11.220Z,57.90
2018-05-12T00:52:38.713Z,57.90
2018-05-12T00:55:06.186Z,58.20
2018-05-12T00:57:33.671Z,58.20
2018-05-12T01:00:01.897Z,59.00
2018-05-12T01:02:29.380Z,59.00
2018-05-12T01:04:56.830Z,59.00
2018-05-12T01:07:24.332Z,59.50
2018-05-12T01:09:51.800Z,60.10
2018-05-12T01:12:19.277Z,60.40
2018-05-12T01:14:46.738Z,61.50
2018-05-12T01:17:14.217Z,61.60
2018-05-12T01:19:42.468Z,61.90
2018-05-12T01:22:09.941Z,61.60
2018-05-12T01:24:37.423Z,62.20
2018-05-12T01:27:05.676Z,62.50
2018-05-12T01:29:33.126Z,62.40
2018-05-12T01:32:02.097Z,63.30
2018-05-12T01:34:29.672Z,64.00
2018-05-12T01:36:57.138Z,63.40
2018-05-12T01:39:25.380Z,65.00
2018-05-12T01:41:52.849Z,64.20
2018-05-12T01:44:20.317Z,64.10
2018-05-12T01:46:47.790Z,64.00
2018-05-12T01:49:16.040Z,64.60
2018-05-12T01:51:43.525Z,64.60
2018-05-12T01:54:11.767Z,65.20
2018-05-12T01:56:39.221Z,65.20
2018-05-12T01:59:06.749Z,65.40
2018-05-12T02:01:34.213Z,65.40
2018-05-12T02:04:01.691Z,65.30
2018-05-12T02:06:29.156Z,65.60
2018-05-12T02:08:56.606Z,66.60
2018-05-12T02:11:24.109Z,66.30
2018-05-12T02:13:51.572Z,66.70
2018-05-12T02:16:19.037Z,66.90
2018-05-12T02:18:46.509Z,67.10
2018-05-12T02:21:13.985Z,67.10
2018-05-12T02:23:41.452Z,67.40
2018-05-12T02:26:08.932Z,67.40
2018-05-12T02:28:37.157Z,68.30
2018-05-12T02:31:04.631Z,68.30
2018-05-12T02:33:32.099Z,68.70
2018-05-12T02:36:00.341Z,69.50
2018-05-12T02:38:27.801Z,68.70
2018-05-12T02:40:55.658Z,69.10
2018-05-12T02:43:23.122Z,69.30
2018-05-12T02:45:50.602Z,69.40
2018-05-12T02:48:18.064Z,70.10
2018-05-12T02:50:45.520Z,70.00
2018-05-12T02:53:13.769Z,71.30
2018-05-12T02:55:41.249Z,71.20
2018-05-12T02:58:09.492Z,73.20
2018-05-12T03:00:36.953Z,72.50
2018-05-12T03:03:04.457Z,72.90
2018-05-12T03:05:31.929Z,72.90
2018-05-12T03:07:59.435Z,73.20
2018-05-12T03:10:26.905Z,73.30
2018-05-12T03:12:54.362Z,73.90
2018-05-12T03:15:22.608Z,74.00
2018-05-12T03:17:50.112Z,73.90
2018-05-12T03:20:17.559Z,74.10
2018-05-12T03:22:45.798Z,74.50
2018-05-12T03:25:13.273Z,74.50
2018-05-12T03:27:40.736Z,74.30
2018-05-12T03:30:08.974Z,75.10
2018-05-12T03:32:36.467Z,75.10
2018-05-12T03:35:04.719Z,75.30
2018-05-12T03:37:32.181Z,75.20
2018-05-12T03:39:59.655Z,75.50
2018-05-12T03:42:27.876Z,76.10
2018-05-12T03:44:55.338Z,76.10
2018-05-12T03:47:22.825Z,76.70
2018-05-12T03:49:50.405Z,76.50
2018-05-12T03:52:17.862Z,76.30
2018-05-12T03:54:46.112Z,75.90
2018-05-12T03:57:13.591Z,76.60
2018-05-12T03:59:41.821Z,75.80
2018-05-12T04:02:09.404Z,75.80
2018-05-12T04:04:49.697Z,75.80
2018-05-12T04:07:29.118Z,75.80
2018-05-12T04:10:09.825Z,75.60
2018-05-12T04:12:37.297Z,75.50
2018-05-12T04:15:04.753Z,75.20
2018-05-12T04:17:32.460Z,75.00
2018-05-12T04:20:00.783Z,74.70
2018-05-12T04:22:29.668Z,74.70
2018-05-12T04:24:57.341Z,74.60
2018-05-12T04:27:24.850Z,73.80
2018-05-12T04:29:52.316Z,72.10
2018-05-12T04:32:19.789Z,70.30
2018-05-12T04:34:47.466Z,68.10
2018-05-12T04:37:14.929Z,67.00
2018-05-12T04:39:42.439Z,64.70
2018-05-12T04:42:09.940Z,62.80
2018-05-12T04:44:37.423Z,60.40
2018-05-12T04:47:05.929Z,57.20
2018-05-12T04:49:33.464Z,57.10
2018-05-12T04:52:00.872Z,56.30
2018-05-12T04:54:28.359Z,56.50
2018-05-12T04:56:55.812Z,56.10
2018-05-12T04:59:23.287Z,55.70
2018-05-12T05:01:51.509Z,56.40
2018-05-12T05:04:18.985Z,56.40
2018-05-12T05:06:46.467Z,56.20
2018-05-12T05:09:13.943Z,55.30
2018-05-12T05:11:41.402Z,54.00
2018-05-12T05:14:09.466Z,52.30
2018-05-12T05:16:36.928Z,51.30
2018-05-12T05:19:04.416Z,51.10
2018-05-12T05:21:31.896Z,50.70
2018-05-12T05:23:59.382Z,50.60
2018-05-12T05:26:27.599Z,50.20
2018-05-12T05:28:55.958Z,49.60
2018-05-12T05:31:23.417Z,48.90
2018-05-12T05:33:50.906Z,48.40
2018-05-12T05:36:18.382Z,47.90
2018-05-12T05:38:45.855Z,47.40
2018-05-12T05:41:14.084Z,47.40
2018-05-12T05:43:41.645Z,47.30
2018-05-12T05:46:09.154Z,47.50
2018-05-12T05:48:36.648Z,47.80
2018-05-12T05:51:04.158Z,47.90
2018-05-12T05:53:32.392Z,47.00
2018-05-12T05:56:00.001Z,47.00
2018-05-12T05:58:27.523Z,47.00
2018-05-12T06:00:54.947Z,47.30
2018-05-12T06:03:22.431Z,46.30
2018-05-12T06:05:49.906Z,45.20
2018-05-12T06:08:18.166Z,42.50
2018-05-12T06:10:45.652Z,42.40
2018-05-12T06:13:13.922Z,39.90
2018-05-12T06:15:42.164Z,37.70
2018-05-12T06:18:09.643Z,37.60
2018-05-12T06:20:37.870Z,34.60
2018-05-12T06:23:05.346Z,34.50
2018-05-12T06:25:33.092Z,33.30
2018-05-12T06:28:00.644Z,32.30
2018-05-12T06:30:28.085Z,32.00
2018-05-12T06:32:55.549Z,31.90
2018-05-12T06:35:23.030Z,31.90
2018-05-12T06:37:50.491Z,31.80
2018-05-12T06:40:18.068Z,31.20
2018-05-12T06:42:45.600Z,30.80
2018-05-12T06:45:13.058Z,30.70
2018-05-12T06:47:40.521Z,30.10
2018-05-12T06:50:09.492Z,29.20
2018-05-12T06:52:36.989Z,29.20
2018-05-12T06:55:05.625Z,28.30
2018-05-12T06:57:34.529Z,28.30
2018-05-12T07:00:02.442Z,28.10
2018-05-12T07:02:30.855Z,27.60
2018-05-12T07:04:58.321Z,27.60
2018-05-12T07:07:25.855Z,27.50
2018-05-12T07:09:53.320Z,27.80
2018-05-12T07:12:20.802Z,27.60
2018-05-12T07:14:48.273Z,26.70
2018-05-12T07:17:15.784Z,26.80
2018-05-12T07:19:43.261Z,26.80
2018-05-12T07:22:10.741Z,26.50
2018-05-12T07:24:38.221Z,26.20
2018-05-12T07:27:06.460Z,25.60
2018-05-12T07:29:33.948Z,25.60
2018-05-12T07:32:02.209Z,26.40
2018-05-12T07:34:29.679Z,26.40
2018-05-12T07:36:57.927Z,26.50
2018-05-12T07:39:25.414Z,26.50
2018-05-12T07:41:53.687Z,26.40
2018-05-12T07:44:21.953Z,26.50
2018-05-12T07:46:50.335Z,26.40
2018-05-12T07:49:19.206Z,26.30
2018-05-12T07:51:46.742Z,26.30
2018-05-12T07:54:14.231Z,25.90
2018-05-12T07:56:42.487Z,25.70
2018-05-12T07:59:09.972Z,25.60
2018-05-12T08:01:38.218Z,25.10
2018-05-12T08:04:05.731Z,25.10
2018-05-12T08:06:33.820Z,24.70
2018-05-12T08:09:01.371Z,24.50
2018-05-12T08:11:28.850Z,24.00
2018-05-12T08:13:56.339Z,23.50
2018-05-12T08:16:24.566Z,22.50
2018-05-12T08:18:52.025Z,22.50
2018-05-12T08:21:19.524Z,23.00
2018-05-12T08:23:47.749Z,21.70
2018-05-12T08:26:15.225Z,21.70
2018-05-12T08:28:42.777Z,21.50
2018-05-12T08:31:10.281Z,21.50
2018-05-12T08:33:37.743Z,22.00
2018-05-12T08:36:05.211Z,21.50
2018-05-12T08:38:32.686Z,21.40
2018-05-12T08:41:00.152Z,20.50
2018-05-12T08:43:27.617Z,20.70
2018-05-12T08:45:55.080Z,20.50
2018-05-12T08:48:22.664Z,20.10
2018-05-12T08:50:50.076Z,19.70
2018-05-12T08:53:17.550Z,19.90
2018-05-12T08:55:45.057Z,20.00
2018-05-12T08:58:12.530Z,20.00
2018-05-12T09:00:39.984Z,20.20
2018-05-12T09:03:07.476Z,17.70
2018-05-12T09:05:34.969Z,19.00
2018-05-12T09:08:02.452Z,19.50
2018-05-12T09:10:29.924Z,19.30
2018-05-12T09:12:57.414Z,18.60
2018-05-12T09:15:24.874Z,19.40
2018-05-12T09:17:53.155Z,19.20
2018-05-12T09:20:22.213Z,18.60
2018-05-12T09:22:49.684Z,18.50
2018-05-12T09:25:17.956Z,18.30
2018-05-12T09:27:45.426Z,18.00
2018-05-12T09:30:13.683Z,17.40
2018-05-12T09:32:41.165Z,17.30
2018-05-12T09:35:10.549Z,16.80
2018-05-12T09:37:38.033Z,16.80
2018-05-12T09:40:05.568Z,16.90
2018-05-12T09:42:33.069Z,16.70
2018-05-12T09:45:00.515Z,16.90
2018-05-12T09:47:27.975Z,16.80
2018-05-12T09:49:55.463Z,16.80
2018-05-12T09:52:22.942Z,17.10
2018-05-12T09:54:50.421Z,17.60
2018-05-12T09:57:17.888Z,18.20
2018-05-12T09:59:45.483Z,18.80
2018-05-12T10:02:12.963Z,18.70
2018-05-12T10:04:41.188Z,19.50
2018-05-12T10:07:08.708Z,19.50
2018-05-12T10:09:37.169Z,19.70
2018-05-12T10:12:04.627Z,19.70
2018-05-12T10:14:32.182Z,19.40
2018-05-12T10:16:59.700Z,19.70
2018-05-12T10:19:27.251Z,19.90
2018-05-12T10:21:54.729Z,19.60
2018-05-12T10:24:22.387Z,19.40
2018-05-12T10:26:49.935Z,18.30
2018-05-12T10:29:17.488Z,18.80
2018-05-12T10:31:44.959Z,18.60
2018-05-12T10:34:15.557Z,18.90
2018-05-12T10:36:43.030Z,19.10
2018-05-12T10:39:10.544Z,19.20
2018-05-12T10:41:38.005Z,18.80
2018-05-12T10:44:06.233Z,18.90
2018-05-12T10:46:33.695Z,18.80
2018-05-12T10:49:01.165Z,19.20
2018-05-12T10:51:28.748Z,19.80
2018-05-12T10:53:56.976Z,20.40
2018-05-12T10:56:24.437Z,20.40
2018-05-12T10:58:51.987Z,20.40
2018-05-12T11:01:19.446Z,21.10
2018-05-12T11:03:46.919Z,21.60
2018-05-12T11:06:14.383Z,21.90
2018-05-12T11:08:41.890Z,22.20
2018-05-12T11:11:09.451Z,22.20
2018-05-12T11:13:37.136Z,22.50
2018-05-12T11:16:04.691Z,23.00
2018-05-12T11:18:32.086Z,23.30
2018-05-12T11:21:00.317Z,23.90
2018-05-12T11:23:27.802Z,23.90
2018-05-12T11:25:55.257Z,23.50
2018-05-12T11:28:22.741Z,24.10
2018-05-12T11:30:50.969Z,23.90
2018-05-12T11:33:18.449Z,23.90
2018-05-12T11:35:46.003Z,24.10
2018-05-12T11:38:13.525Z,23.40
2018-05-12T11:40:41.453Z,23.70
2018-05-12T11:43:08.942Z,23.80
2018-05-12T11:45:39.007Z,24.30
2018-05-12T11:48:06.525Z,24.20
2018-05-12T11:50:34.011Z,24.20
2018-05-12T11:53:01.474Z,23.60
2018-05-12T11:55:28.948Z,22.80
2018-05-12T11:57:57.364Z,23.70
2018-05-12T12:00:24.870Z,23.60
2018-05-12T12:02:53.093Z,24.90
2018-05-12T12:05:20.737Z,24.40
2018-05-12T12:07:48.213Z,24.90
2018-05-12T12:10:15.765Z,25.30
2018-05-12T12:12:43.215Z,24.60
2018-05-12T12:15:10.694Z,24.60
2018-05-12T12:17:38.161Z,24.10
2018-05-12T12:20:05.642Z,23.90
2018-05-12T12:22:33.882Z,23.80
2018-05-12T12:25:01.800Z,23.80
2018-05-12T12:27:29.369Z,24.50
2018-05-12T12:29:56.852Z,24.70
2018-05-12T12:32:24.389Z,24.40
2018-05-12T12:34:51.890Z,24.20
2018-05-12T12:37:19.394Z,24.80
2018-05-12T12:39:46.857Z,25.30
2018-05-12T12:42:14.338Z,26.60
2018-05-12T12:44:41.792Z,26.50
2018-05-12T12:47:09.260Z,26.60
2018-05-12T12:49:36.727Z,26.40
2018-05-12T12:52:04.237Z,25.70
2018-05-12T12:54:31.757Z,26.30
2018-05-12T12:57:00.001Z,27.00
2018-05-12T12:59:27.469Z,27.00
2018-05-12T13:01:55.089Z,27.00
2018-05-12T13:04:22.570Z,26.80
2018-05-12T13:06:50.030Z,26.30
2018-05-12T13:09:17.499Z,25.80
2018-05-12T13:11:44.980Z,26.50
2018-05-12T13:14:13.226Z,26.90
2018-05-12T13:16:40.744Z,26.90
2018-05-12T13:19:08.253Z,26.30
2018-05-12T13:21:36.514Z,26.90
2018-05-12T13:24:04.027Z,26.90
2018-05-12T13:26:31.500Z,27.00
2018-05-12T13:28:58.981Z,26.90
2018-05-12T13:31:26.437Z,26.90
2018-05-12T13:33:53.942Z,26.40
2018-05-12T13:36:21.510Z,26.30
2018-05-12T13:38:49.037Z,26.40
2018-05-12T13:41:17.253Z,26.40
2018-05-12T13:43:44.753Z,26.40
2018-05-12T13:46:13.069Z,26.20
2018-05-12T13:48:40.481Z,26.20
2018-05-12T13:51:09.564Z,26.50
2018-05-12T13:53:37.060Z,26.40
2018-05-12T13:56:05.313Z,26.40
2018-05-12T13:58:33.561Z,26.20
2018-05-12T14:01:01.041Z,26.10
2018-05-12T14:03:28.511Z,26.50
2018-05-12T14:05:56.764Z,26.40
2018-05-12T14:08:24.269Z,26.40
2018-05-12T14:10:52.260Z,26.30
2018-05-12T14:13:19.736Z,26.20
2018-05-12T14:15:47.193Z,26.20
2018-05-12T14:18:14.658Z,26.30
2018-05-12T14:20:42.171Z,26.30
2018-05-12T14:23:09.665Z,26.40
2018-05-12T14:25:37.130Z,27.10
2018-05-12T14:28:05.362Z,26.90
2018-05-12T14:30:33.106Z,26.90
2018-05-12T14:33:00.622Z,27.30
2018-05-12T14:35:28.102Z,26.80
2018-05-12T14:37:55.696Z,26.70
2018-05-12T14:40:23.172Z,26.80
2018-05-12T14:42:50.756Z,27.20
2018-05-12T14:45:18.156Z,27.50
2018-05-12T14:47:45.643Z,27.10
2018-05-12T14:50:13.129Z,27.40
2018-05-12T14:52:41.377Z,27.70
2018-05-12T14:55:08.834Z,27.70
2018-05-12T14:57:36.366Z,28.00
2018-05-12T15:00:03.834Z,27.90
2018-05-12T15:02:31.402Z,27.90
2018-05-12T15:04:59.605Z,28.00
2018-05-12T15:07:27.850Z,27.50
2018-05-12T15:09:55.300Z,27.50
2018-05-12T15:12:22.827Z,27.60
2018-05-12T15:14:50.433Z,27.80
2018-05-12T15:17:17.932Z,27.50
2018-05-12T15:19:45.442Z,27.20
2018-05-12T15:22:12.903Z,26.80
2018-05-12T15:24:40.411Z,27.20
2018-05-12T15:27:07.914Z,27.30
2018-05-12T15:29:35.401Z,27.30
2018-05-12T15:32:03.621Z,27.40
2018-05-12T15:34:31.106Z,27.40
2018-05-12T15:36:58.595Z,27.60
2018-05-12T15:39:26.072Z,27.30
2018-05-12T15:41:53.540Z,27.10
2018-05-12T15:44:21.056Z,27.40
2018-05-12T15:46:49.331Z,27.10
2018-05-12T15:49:17.588Z,26.80
2018-05-12T15:51:45.831Z,26.90
2018-05-12T15:54:13.298Z,26.60
2018-05-12T15:56:40.809Z,26.90
2018-05-12T15:59:08.282Z,26.90
2018-05-12T16:01:35.830Z,26.60
2018-05-12T16:04:03.314Z,26.40
2018-05-12T16:06:30.900Z,26.00
2018-05-12T16:09:00.757Z,26.40
2018-05-12T16:11:29.202Z,26.00
2018-05-12T16:13:57.647Z,25.90
2018-05-12T16:16:25.258Z,25.90
2018-05-12T16:18:52.819Z,25.40
2018-05-12T16:21:20.354Z,25.70
2018-05-12T16:23:48.890Z,26.40
2018-05-12T16:26:16.359Z,26.40
2018-05-12T16:28:43.937Z,26.70
2018-05-12T16:31:11.471Z,26.40
2018-05-12T16:33:38.983Z,26.90
2018-05-12T16:36:06.872Z,26.90
2018-05-12T16:38:34.480Z,27.00
2018-05-12T16:41:01.985Z,26.90
2018-05-12T16:43:29.522Z,26.60
2018-05-12T16:45:57.880Z,27.00
2018-05-12T16:48:26.096Z,27.30
2018-05-12T16:50:53.695Z,27.30
2018-05-12T16:53:21.100Z,27.80
2018-05-12T16:55:48.558Z,28.10
2018-05-12T16:58:16.083Z,28.00
2018-05-12T17:00:44.301Z,28.40
2018-05-12T17:03:11.801Z,28.30
2018-05-12T17:05:40.036Z,29.20
2018-05-12T17:08:07.530Z,29.20
2018-05-12T17:10:35.185Z,29.70
2018-05-12T17:13:02.679Z,29.80
2018-05-12T17:15:30.151Z,30.00
2018-05-12T17:17:57.630Z,30.20
2018-05-12T17:20:25.132Z,30.60
2018-05-12T17:22:52.641Z,30.80
2018-05-12T17:25:20.141Z,30.80
2018-05-12T17:27:48.377Z,31.80
2018-05-12T17:30:15.905Z,31.80
2018-05-12T17:32:43.358Z,31.80
2018-05-12T17:35:10.849Z,31.70
2018-05-12T17:37:38.309Z,32.00
2018-05-12T17:40:05.806Z,32.20
2018-05-12T17:42:33.277Z,32.40
2018-05-12T17:45:00.755Z,32.60
2018-05-12T17:47:28.548Z,32.90
2018-05-12T17:49:56.878Z,33.60
2018-05-12T17:52:24.308Z,33.40
2018-05-12T17:54:52.541Z,33.90
2018-05-12T17:57:19.997Z,33.90
2018-05-12T17:59:48.239Z,34.10
2018-05-12T18:02:15.734Z,34.10
2018-05-12T18:04:43.974Z,34.70
2018-05-12T18:07:11.421Z,34.70
2018-05-12T18:09:38.905Z,34.80
2018-05-12T18:12:06.355Z,35.10
2018-05-12T18:14:33.837Z,35.30
2018-05-12T18:17:01.334Z,35.40
2018-05-12T18:19:28.929Z,35.70
2018-05-12T18:21:56.442Z,35.90
2018-05-12T18:24:23.897Z,36.00
2018-05-12T18:26:51.380Z,36.20
2018-05-12T18:29:18.854Z,36.60
2018-05-12T18:31:46.449Z,36.90
2018-05-12T18:34:13.837Z,37.30
2018-05-12T18:36:41.314Z,37.40
2018-05-12T18:39:08.792Z,37.50
2018-05-12T18:41:36.274Z,37.50
2018-05-12T18:44:03.765Z,37.50
2018-05-12T18:46:31.231Z,37.70
2018-05-12T18:48:58.706Z,38.20
2018-05-12T18:51:26.161Z,38.60
2018-05-12T18:53:53.632Z,39.00
2018-05-12T18:56:21.100Z,39.50
2018-05-12T18:58:48.607Z,40.20
2018-05-12T19:01:16.088Z,40.30
2018-05-12T19:03:43.597Z,41.10
2018-05-12T19:06:11.077Z,41.60
2018-05-12T19:08:38.564Z,41.80
2018-05-12T19:11:06.053Z,42.50
2018-05-12T19:13:34.295Z,42.50
2018-05-12T19:16:01.758Z,42.50
2018-05-12T19:18:30.750Z,43.40
2018-05-12T19:20:58.214Z,43.30
2018-05-12T19:23:25.702Z,43.90
2018-05-12T19:25:53.178Z,44.80
2018-05-12T19:28:20.686Z,46.10
2018-05-12T19:30:48.157Z,46.50
2018-05-12T19:33:16.995Z,46.30
2018-05-12T19:35:44.502Z,46.20
2018-05-12T19:38:12.809Z,47.10
2018-05-12T19:40:40.272Z,47.00
2018-05-12T19:43:07.736Z,47.30
2018-05-12T19:45:35.222Z,47.70
2018-05-12T19:48:02.698Z,47.90
2018-05-12T19:50:30.946Z,49.10
2018-05-12T19:52:58.405Z,49.10
2018-05-12T19:55:26.157Z,49.40
2018-05-12T19:57:53.614Z,49.40
2018-05-12T20:00:21.103Z,50.00
2018-05-12T20:02:49.723Z,49.60
2018-05-12T20:05:17.241Z,49.60
2018-05-12T20:07:45.527Z,50.90
2018-05-12T20:10:13.105Z,50.30
2018-05-12T20:12:40.657Z,50.20
2018-05-12T20:15:08.166Z,50.40
2018-05-12T20:17:35.693Z,50.30
2018-05-12T20:20:03.170Z,49.90
2018-05-12T20:22:31.118Z,49.60
2018-05-12T20:24:58.606Z,49.80
2018-05-12T20:27:26.073Z,50.10
2018-05-12T20:29:54.949Z,50.80
2018-05-12T20:32:22.460Z,50.80
2018-05-12T20:34:49.960Z,50.90
2018-05-12T20:37:17.495Z,51.10
2018-05-12T20:39:45.684Z,51.20
2018-05-12T20:42:13.189Z,51.10
2018-05-12T20:44:40.689Z,51.60
2018-05-12T20:47:08.215Z,51.90
2018-05-12T20:49:35.761Z,52.70
2018-05-12T20:52:04.208Z,51.80
2018-05-12T20:54:31.682Z,52.10
2018-05-12T20:56:59.221Z,52.70
2018-05-12T20:59:26.701Z,52.40
2018-05-12T21:01:54.165Z,52.60
2018-05-12T21:04:21.676Z,52.60
2018-05-12T21:06:49.140Z,52.70
2018-05-12T21:09:16.625Z,53.00
2018-05-12T21:11:44.881Z,52.70
2018-05-12T21:14:13.207Z,51.80
2018-05-12T21:16:40.605Z,51.80
2018-05-12T21:19:08.102Z,52.00
2018-05-12T21:21:35.918Z,52.20
2018-05-12T21:24:03.604Z,51.80
2018-05-12T21:26:32.203Z,52.20
2018-05-12T21:28:59.769Z,51.90
2018-05-12T21:31:27.244Z,52.10
2018-05-12T21:33:54.725Z,51.10
2018-05-12T21:36:22.212Z,51.40
2018-05-12T21:38:50.450Z,50.90
2018-05-12T21:41:17.922Z,50.80
2018-05-12T21:43:45.493Z,50.60
2018-05-12T21:46:13.767Z,50.40
2018-05-12T21:48:42.153Z,50.30
2018-05-12T21:51:10.434Z,49.80
2018-05-12T21:53:39.481Z,49.80
2018-05-12T21:56:06.989Z,49.80
2018-05-12T21:58:34.523Z,49.20
2018-05-12T22:01:01.991Z,48.80
2018-05-12T22:03:30.233Z,48.10
2018-05-12T22:05:57.802Z,48.00
2018-05-12T22:08:25.276Z,48.60
2018-05-12T22:10:52.760Z,48.00
2018-05-12T22:13:20.256Z,48.00
2018-05-12T22:15:47.726Z,47.50
2018-05-12T22:18:15.984Z,47.20
2018-05-12T22:20:43.494Z,47.20
2018-05-12T22:23:11.021Z,47.00
2018-05-12T22:25:39.242Z,46.30
2018-05-12T22:28:06.736Z,46.30
2018-05-12T22:30:34.266Z,45.80
2018-05-12T22:33:02.446Z,45.20
2018-05-12T22:35:29.924Z,45.20
2018-05-12T22:37:57.397Z,44.90
2018-05-12T22:40:25.633Z,44.70
2018-05-12T22:42:54.101Z,44.70
2018-05-12T22:45:21.570Z,44.40
2018-05-12T22:47:50.189Z,44.30
2018-05-12T22:50:17.697Z,44.30
2018-05-12T22:52:45.171Z,44.10
2018-05-12T22:55:12.632Z,44.10
2018-05-12T22:57:40.126Z,44.10
2018-05-12T23:00:08.344Z,44.50
2018-05-12T23:02:37.011Z,44.50
2018-05-12T23:05:04.485Z,44.20
2018-05-12T23:07:31.941Z,44.20
2018-05-12T23:09:59.433Z,44.40
2018-05-12T23:12:26.885Z,44.40
2018-05-12T23:14:56.249Z,44.50
2018-05-12T23:17:23.706Z,44.40
2018-05-12T23:19:51.190Z,44.50
2018-05-12T23:22:18.655Z,44.30
2018-05-12T23:24:46.145Z,44.20
2018-05-12T23:27:13.618Z,44.30
2018-05-12T23:29:41.078Z,44.20
2018-05-12T23:32:08.532Z,44.30
2018-05-12T23:34:36.011Z,44.30
2018-05-12T23:37:03.539Z,44.40
2018-05-12T23:39:31.010Z,44.30
2018-05-12T23:41:58.463Z,44.40
2018-05-12T23:44:25.961Z,44.30
2018-05-12T23:46:53.438Z,44.30
2018-05-12T23:49:21.678Z,44.70
2018-05-12T23:51:49.174Z,44.70
2018-05-12T23:54:17.402Z,45.80
2018-05-12T23:56:45.241Z,45.80
2018-05-12T23:59:12.731Z,45.90
